sensor_id;sensor_type;location;lat;lon;timestamp;temperature;humidity
55004;DHT22;40900;52.710;6.438;2022-09-30T00:01:48;11.40;99.90
55004;DHT22;40900;52.710;6.438;2022-09-30T00:04:22;11.30;99.90
55004;DHT22;40900;52.710;6.438;2022-09-30T00:06:49;11.30;99.90
55004;DHT22;40900;52.710;6.438;2022-09-30T00:09:16;11.30;99.90
55004;DHT22;40900;52.710;6.438;2022-09-30T00:11:42;11.30;99.90
55004;DHT22;40900;52.710;6.438;2022-09-30T00:14:15;11.30;99.90
55004;DHT22;40900;52.710;6.438;2022-09-30T00:16:41;11.30;99.90
55004;DHT22;40900;52.710;6.438;2022-09-30T00:19:07;11.30;99.90
55004;DHT22;40900;52.710;6.438;2022-09-30T00:21:33;11.30;99.90
55004;DHT22;40900;52.710;6.438;2022-09-30T00:23:59;11.20;99.90
55004;DHT22;40900;52.710;6.438;2022-09-30T00:26:25;11.20;99.90
55004;DHT22;40900;52.710;6.438;2022-09-30T00:28:54;11.20;99.90
55004;DHT22;40900;52.710;6.438;2022-09-30T00:31:20;11.10;99.90
55004;DHT22;40900;52.710;6.438;2022-09-30T00:33:47;11.10;99.90
55004;DHT22;40900;52.710;6.438;2022-09-30T00:36:48;11.20;99.90
55004;DHT22;40900;52.710;6.438;2022-09-30T00:39:19;11.20;99.90
55004;DHT22;40900;52.710;6.438;2022-09-30T00:41:47;11.20;99.90
55004;DHT22;40900;52.710;6.438;2022-09-30T00:49:48;11.00;99.90
55004;DHT22;40900;52.710;6.438;2022-09-30T00:52:14;11.00;99.90
55004;DHT22;40900;52.710;6.438;2022-09-30T00:54:40;10.80;99.90
55004;DHT22;40900;52.710;6.438;2022-09-30T00:57:07;10.70;99.90
55004;DHT22;40900;52.710;6.438;2022-09-30T00:59:42;10.60;99.90
55004;DHT22;40900;52.710;6.438;2022-09-30T01:02:10;10.60;99.90
55004;DHT22;40900;52.710;6.438;2022-09-30T01:04:38;10.60;99.90
55004;DHT22;40900;52.710;6.438;2022-09-30T01:07:05;10.60;99.90
55004;DHT22;40900;52.710;6.438;2022-09-30T01:09:37;10.60;99.90
55004;DHT22;40900;52.710;6.438;2022-09-30T01:12:05;10.50;99.90
55004;DHT22;40900;52.710;6.438;2022-09-30T01:14:32;10.50;99.90
55004;DHT22;40900;52.710;6.438;2022-09-30T01:37:14;10.30;99.90
55004;DHT22;40900;52.710;6.438;2022-09-30T01:42:50;10.10;99.90
55004;DHT22;40900;52.710;6.438;2022-09-30T01:46:31;10.10;99.90
55004;DHT22;40900;52.710;6.438;2022-09-30T01:48:54;10.10;99.90
55004;DHT22;40900;52.710;6.438;2022-09-30T01:51:31;10.00;99.90
55004;DHT22;40900;52.710;6.438;2022-09-30T01:54:04;10.00;99.90
55004;DHT22;40900;52.710;6.438;2022-09-30T01:56:41;10.00;99.90
55004;DHT22;40900;52.710;6.438;2022-09-30T01:59:16;10.00;99.90
55004;DHT22;40900;52.710;6.438;2022-09-30T02:02:09;10.00;99.90
55004;DHT22;40900;52.710;6.438;2022-09-30T02:04:48;9.90;99.90
55004;DHT22;40900;52.710;6.438;2022-09-30T02:07:23;9.90;99.90
55004;DHT22;40900;52.710;6.438;2022-09-30T02:10:26;9.80;99.90
55004;DHT22;40900;52.710;6.438;2022-09-30T02:12:58;9.80;99.90
55004;DHT22;40900;52.710;6.438;2022-09-30T02:15:43;9.80;99.90
55004;DHT22;40900;52.710;6.438;2022-09-30T02:18:26;9.70;99.90
55004;DHT22;40900;52.710;6.438;2022-09-30T02:20:56;9.60;99.90
55004;DHT22;40900;52.710;6.438;2022-09-30T02:23:27;9.60;99.90
55004;DHT22;40900;52.710;6.438;2022-09-30T02:26:13;9.50;99.90
55004;DHT22;40900;52.710;6.438;2022-09-30T02:28:46;9.50;99.90
55004;DHT22;40900;52.710;6.438;2022-09-30T02:31:17;9.50;99.90
55004;DHT22;40900;52.710;6.438;2022-09-30T02:33:51;9.30;99.90
55004;DHT22;40900;52.710;6.438;2022-09-30T02:36:30;9.30;99.90
55004;DHT22;40900;52.710;6.438;2022-09-30T02:39:07;9.30;99.90
55004;DHT22;40900;52.710;6.438;2022-09-30T02:41:41;9.20;99.90
55004;DHT22;40900;52.710;6.438;2022-09-30T02:44:09;9.20;99.90
55004;DHT22;40900;52.710;6.438;2022-09-30T02:52:27;9.20;99.90
55004;DHT22;40900;52.710;6.438;2022-09-30T02:55:11;9.20;99.90
55004;DHT22;40900;52.710;6.438;2022-09-30T03:00:12;9.20;99.90
55004;DHT22;40900;52.710;6.438;2022-09-30T03:02:39;9.20;99.90
55004;DHT22;40900;52.710;6.438;2022-09-30T03:05:06;9.20;99.90
55004;DHT22;40900;52.710;6.438;2022-09-30T03:07:33;9.20;99.90
55004;DHT22;40900;52.710;6.438;2022-09-30T03:09:59;9.10;99.90
55004;DHT22;40900;52.710;6.438;2022-09-30T03:18:55;9.10;99.90
55004;DHT22;40900;52.710;6.438;2022-09-30T03:32:18;9.00;99.90
55004;DHT22;40900;52.710;6.438;2022-09-30T03:42:42;9.00;99.90
55004;DHT22;40900;52.710;6.438;2022-09-30T03:47:50;9.00;99.90
55004;DHT22;40900;52.710;6.438;2022-09-30T03:50:20;8.90;99.90
55004;DHT22;40900;52.710;6.438;2022-09-30T03:52:47;8.90;99.90
55004;DHT22;40900;52.710;6.438;2022-09-30T03:55:13;8.80;99.90
55004;DHT22;40900;52.710;6.438;2022-09-30T03:57:40;8.80;99.90
55004;DHT22;40900;52.710;6.438;2022-09-30T04:00:07;8.90;99.90
55004;DHT22;40900;52.710;6.438;2022-09-30T04:02:33;8.80;99.90
55004;DHT22;40900;52.710;6.438;2022-09-30T04:05:01;8.80;99.90
55004;DHT22;40900;52.710;6.438;2022-09-30T04:07:26;8.70;99.90
55004;DHT22;40900;52.710;6.438;2022-09-30T04:09:52;8.70;99.90
55004;DHT22;40900;52.710;6.438;2022-09-30T04:12:18;8.70;99.90
55004;DHT22;40900;52.710;6.438;2022-09-30T04:14:43;8.60;99.90
55004;DHT22;40900;52.710;6.438;2022-09-30T04:17:09;8.60;99.90
55004;DHT22;40900;52.710;6.438;2022-09-30T04:19:35;8.50;99.90
55004;DHT22;40900;52.710;6.438;2022-09-30T04:22:05;8.50;99.90
55004;DHT22;40900;52.710;6.438;2022-09-30T04:24:31;8.40;99.90
55004;DHT22;40900;52.710;6.438;2022-09-30T04:26:56;8.30;99.90
55004;DHT22;40900;52.710;6.438;2022-09-30T04:29:22;8.30;99.90
55004;DHT22;40900;52.710;6.438;2022-09-30T04:31:48;8.40;99.90
55004;DHT22;40900;52.710;6.438;2022-09-30T04:34:14;8.40;99.90
55004;DHT22;40900;52.710;6.438;2022-09-30T04:36:39;8.30;99.90
55004;DHT22;40900;52.710;6.438;2022-09-30T04:39:05;8.30;99.90
55004;DHT22;40900;52.710;6.438;2022-09-30T04:41:31;8.30;99.90
55004;DHT22;40900;52.710;6.438;2022-09-30T04:43:59;8.30;99.90
55004;DHT22;40900;52.710;6.438;2022-09-30T04:46:30;8.20;99.90
55004;DHT22;40900;52.710;6.438;2022-09-30T04:48:56;8.20;99.90
55004;DHT22;40900;52.710;6.438;2022-09-30T04:51:22;8.20;99.90
55004;DHT22;40900;52.710;6.438;2022-09-30T04:53:48;8.20;99.90
55004;DHT22;40900;52.710;6.438;2022-09-30T04:56:14;8.30;99.90
55004;DHT22;40900;52.710;6.438;2022-09-30T04:58:44;8.30;99.90
55004;DHT22;40900;52.710;6.438;2022-09-30T05:01:12;8.30;99.90
55004;DHT22;40900;52.710;6.438;2022-09-30T05:03:38;8.30;99.90
55004;DHT22;40900;52.710;6.438;2022-09-30T05:06:06;8.20;99.90
55004;DHT22;40900;52.710;6.438;2022-09-30T05:08:32;8.20;99.90
55004;DHT22;40900;52.710;6.438;2022-09-30T05:11:00;8.20;99.90
55004;DHT22;40900;52.710;6.438;2022-09-30T05:13:32;8.20;99.90
55004;DHT22;40900;52.710;6.438;2022-09-30T05:15:58;8.20;99.90
55004;DHT22;40900;52.710;6.438;2022-09-30T05:18:24;8.20;99.90
55004;DHT22;40900;52.710;6.438;2022-09-30T05:20:54;8.20;99.90
55004;DHT22;40900;52.710;6.438;2022-09-30T05:23:22;8.20;99.90
55004;DHT22;40900;52.710;6.438;2022-09-30T05:25:50;8.20;99.90
55004;DHT22;40900;52.710;6.438;2022-09-30T05:28:17;8.20;99.90
55004;DHT22;40900;52.710;6.438;2022-09-30T05:30:43;8.10;99.90
55004;DHT22;40900;52.710;6.438;2022-09-30T05:33:11;8.10;99.90
55004;DHT22;40900;52.710;6.438;2022-09-30T05:35:41;8.10;99.90
55004;DHT22;40900;52.710;6.438;2022-09-30T05:38:08;8.10;99.90
55004;DHT22;40900;52.710;6.438;2022-09-30T05:40:37;8.10;99.90
55004;DHT22;40900;52.710;6.438;2022-09-30T05:43:06;8.10;99.90
55004;DHT22;40900;52.710;6.438;2022-09-30T05:45:33;8.10;99.90
55004;DHT22;40900;52.710;6.438;2022-09-30T05:47:59;8.10;99.90
55004;DHT22;40900;52.710;6.438;2022-09-30T05:50:25;8.10;99.90
55004;DHT22;40900;52.710;6.438;2022-09-30T05:52:51;8.00;99.90
55004;DHT22;40900;52.710;6.438;2022-09-30T05:55:19;8.00;99.90
55004;DHT22;40900;52.710;6.438;2022-09-30T05:57:49;8.10;99.90
55004;DHT22;40900;52.710;6.438;2022-09-30T06:00:16;8.10;99.90
55004;DHT22;40900;52.710;6.438;2022-09-30T06:02:42;8.00;99.90
55004;DHT22;40900;52.710;6.438;2022-09-30T06:05:09;8.10;99.90
55004;DHT22;40900;52.710;6.438;2022-09-30T06:07:37;8.00;99.90
55004;DHT22;40900;52.710;6.438;2022-09-30T06:10:04;8.00;99.90
55004;DHT22;40900;52.710;6.438;2022-09-30T06:12:30;8.00;99.90
55004;DHT22;40900;52.710;6.438;2022-09-30T06:14:56;8.00;99.90
55004;DHT22;40900;52.710;6.438;2022-09-30T06:17:22;8.00;99.90
55004;DHT22;40900;52.710;6.438;2022-09-30T06:19:48;8.00;99.90
55004;DHT22;40900;52.710;6.438;2022-09-30T06:22:17;8.00;99.90
55004;DHT22;40900;52.710;6.438;2022-09-30T06:24:43;8.10;99.90
55004;DHT22;40900;52.710;6.438;2022-09-30T06:27:09;8.10;99.90
55004;DHT22;40900;52.710;6.438;2022-09-30T06:29:35;8.20;99.90
55004;DHT22;40900;52.710;6.438;2022-09-30T06:32:01;8.20;99.90
55004;DHT22;40900;52.710;6.438;2022-09-30T06:34:27;8.30;99.90
55004;DHT22;40900;52.710;6.438;2022-09-30T06:36:52;8.30;99.90
55004;DHT22;40900;52.710;6.438;2022-09-30T06:39:19;8.30;99.90
55004;DHT22;40900;52.710;6.438;2022-09-30T06:41:45;8.50;99.90
55004;DHT22;40900;52.710;6.438;2022-09-30T06:44:11;8.50;99.90
55004;DHT22;40900;52.710;6.438;2022-09-30T06:46:37;8.60;99.90
55004;DHT22;40900;52.710;6.438;2022-09-30T06:49:03;8.70;99.90
55004;DHT22;40900;52.710;6.438;2022-09-30T06:51:31;8.70;99.90
55004;DHT22;40900;52.710;6.438;2022-09-30T06:53:58;8.80;99.90
55004;DHT22;40900;52.710;6.438;2022-09-30T06:56:24;8.90;99.90
55004;DHT22;40900;52.710;6.438;2022-09-30T06:58:50;9.00;99.90
55004;DHT22;40900;52.710;6.438;2022-09-30T07:01:16;9.10;99.90
55004;DHT22;40900;52.710;6.438;2022-09-30T07:03:44;9.20;99.90
55004;DHT22;40900;52.710;6.438;2022-09-30T07:06:12;9.50;99.90
55004;DHT22;40900;52.710;6.438;2022-09-30T07:08:38;10.00;99.90
55004;DHT22;40900;52.710;6.438;2022-09-30T07:11:07;10.90;99.90
55004;DHT22;40900;52.710;6.438;2022-09-30T07:13:37;11.70;99.90
55004;DHT22;40900;52.710;6.438;2022-09-30T07:16:02;11.90;99.90
55004;DHT22;40900;52.710;6.438;2022-09-30T07:18:28;12.20;99.90
55004;DHT22;40900;52.710;6.438;2022-09-30T07:20:55;12.80;99.90
55004;DHT22;40900;52.710;6.438;2022-09-30T07:23:22;13.90;99.90
55004;DHT22;40900;52.710;6.438;2022-09-30T07:25:55;15.20;99.90
55004;DHT22;40900;52.710;6.438;2022-09-30T07:28:22;16.30;99.90
55004;DHT22;40900;52.710;6.438;2022-09-30T07:30:53;17.00;99.90
55004;DHT22;40900;52.710;6.438;2022-09-30T07:33:21;17.50;99.90
55004;DHT22;40900;52.710;6.438;2022-09-30T07:35:54;18.40;99.90
55004;DHT22;40900;52.710;6.438;2022-09-30T07:38:22;18.60;99.90
55004;DHT22;40900;52.710;6.438;2022-09-30T07:40:57;19.20;99.90
55004;DHT22;40900;52.710;6.438;2022-09-30T07:43:25;19.50;99.90
55004;DHT22;40900;52.710;6.438;2022-09-30T07:45:57;19.60;99.90
55004;DHT22;40900;52.710;6.438;2022-09-30T07:48:23;19.70;99.90
55004;DHT22;40900;52.710;6.438;2022-09-30T07:51:41;20.10;99.90
55004;DHT22;40900;52.710;6.438;2022-09-30T07:54:15;20.80;98.10
55004;DHT22;40900;52.710;6.438;2022-09-30T07:56:42;20.50;99.70
55004;DHT22;40900;52.710;6.438;2022-09-30T07:59:09;20.70;99.80
55004;DHT22;40900;52.710;6.438;2022-09-30T08:01:35;20.80;99.90
55004;DHT22;40900;52.710;6.438;2022-09-30T08:04:04;19.80;99.50
55004;DHT22;40900;52.710;6.438;2022-09-30T08:06:34;20.30;99.10
55004;DHT22;40900;52.710;6.438;2022-09-30T08:09:00;19.30;99.90
55004;DHT22;40900;52.710;6.438;2022-09-30T08:11:26;19.40;99.90
55004;DHT22;40900;52.710;6.438;2022-09-30T08:13:53;18.90;99.90
55004;DHT22;40900;52.710;6.438;2022-09-30T08:16:21;19.00;99.90
55004;DHT22;40900;52.710;6.438;2022-09-30T08:18:47;19.00;99.90
55004;DHT22;40900;52.710;6.438;2022-09-30T08:21:13;19.50;99.90
55004;DHT22;40900;52.710;6.438;2022-09-30T08:26:11;20.60;99.90
55004;DHT22;40900;52.710;6.438;2022-09-30T08:28:37;21.20;99.70
55004;DHT22;40900;52.710;6.438;2022-09-30T08:31:18;22.20;98.90
55004;DHT22;40900;52.710;6.438;2022-09-30T08:33:45;21.90;97.30
55004;DHT22;40900;52.710;6.438;2022-09-30T08:36:13;21.80;98.50
55004;DHT22;40900;52.710;6.438;2022-09-30T08:38:40;21.80;98.40
55004;DHT22;40900;52.710;6.438;2022-09-30T08:41:16;22.00;98.60
55004;DHT22;40900;52.710;6.438;2022-09-30T08:44:14;22.50;97.30
55004;DHT22;40900;52.710;6.438;2022-09-30T08:52:24;22.50;96.70
55004;DHT22;40900;52.710;6.438;2022-09-30T08:54:53;22.50;97.10
55004;DHT22;40900;52.710;6.438;2022-09-30T08:57:20;22.50;97.10
55004;DHT22;40900;52.710;6.438;2022-09-30T08:59:54;22.20;96.90
55004;DHT22;40900;52.710;6.438;2022-09-30T09:02:25;22.40;97.20
55004;DHT22;40900;52.710;6.438;2022-09-30T09:04:55;22.10;96.60
55004;DHT22;40900;52.710;6.438;2022-09-30T09:10:33;22.70;96.90
55004;DHT22;40900;52.710;6.438;2022-09-30T09:21:56;23.80;96.20
55004;DHT22;40900;52.710;6.438;2022-09-30T09:24:27;24.20;95.60
55004;DHT22;40900;52.710;6.438;2022-09-30T09:26:54;24.60;95.30
55004;DHT22;40900;52.710;6.438;2022-09-30T09:29:55;25.00;95.00
55004;DHT22;40900;52.710;6.438;2022-09-30T09:32:25;24.60;93.90
55004;DHT22;40900;52.710;6.438;2022-09-30T09:34:56;23.90;94.70
55004;DHT22;40900;52.710;6.438;2022-09-30T09:37:36;23.90;94.80
55004;DHT22;40900;52.710;6.438;2022-09-30T09:40:44;25.00;93.90
55004;DHT22;40900;52.710;6.438;2022-09-30T09:43:39;24.20;94.30
55004;DHT22;40900;52.710;6.438;2022-09-30T09:48:48;23.30;95.00
55004;DHT22;40900;52.710;6.438;2022-09-30T09:51:31;22.80;95.10
55004;DHT22;40900;52.710;6.438;2022-09-30T09:54:01;23.60;95.10
55004;DHT22;40900;52.710;6.438;2022-09-30T09:56:29;23.00;95.10
55004;DHT22;40900;52.710;6.438;2022-09-30T09:59:12;23.70;95.00
55004;DHT22;40900;52.710;6.438;2022-09-30T10:01:47;23.30;95.10
55004;DHT22;40900;52.710;6.438;2022-09-30T10:04:18;24.00;94.30
55004;DHT22;40900;52.710;6.438;2022-09-30T10:06:54;24.10;94.10
55004;DHT22;40900;52.710;6.438;2022-09-30T10:09:26;24.00;94.40
55004;DHT22;40900;52.710;6.438;2022-09-30T10:17:18;23.00;95.40
55004;DHT22;40900;52.710;6.438;2022-09-30T10:19:52;23.60;95.10
55004;DHT22;40900;52.710;6.438;2022-09-30T10:22:26;24.10;94.20
55004;DHT22;40900;52.710;6.438;2022-09-30T10:27:33;25.40;93.30
55004;DHT22;40900;52.710;6.438;2022-09-30T10:30:00;25.80;93.20
55004;DHT22;40900;52.710;6.438;2022-09-30T10:32:26;25.50;92.70
55004;DHT22;40900;52.710;6.438;2022-09-30T10:35:05;25.30;92.80
55004;DHT22;40900;52.710;6.438;2022-09-30T10:37:31;25.00;93.30
55004;DHT22;40900;52.710;6.438;2022-09-30T10:40:00;25.20;93.00
55004;DHT22;40900;52.710;6.438;2022-09-30T10:42:29;25.60;92.80
55004;DHT22;40900;52.710;6.438;2022-09-30T10:47:44;24.70;93.70
55004;DHT22;40900;52.710;6.438;2022-09-30T10:50:13;25.10;92.80
55004;DHT22;40900;52.710;6.438;2022-09-30T10:53:04;24.90;93.00
55004;DHT22;40900;52.710;6.438;2022-09-30T10:55:43;23.90;92.90
55004;DHT22;40900;52.710;6.438;2022-09-30T11:00:49;22.70;95.10
55004;DHT22;40900;52.710;6.438;2022-09-30T11:03:20;22.50;94.90
55004;DHT22;40900;52.710;6.438;2022-09-30T11:05:49;23.00;94.90
55004;DHT22;40900;52.710;6.438;2022-09-30T11:11:02;24.60;93.80
55004;DHT22;40900;52.710;6.438;2022-09-30T11:13:55;24.90;92.90
55004;DHT22;40900;52.710;6.438;2022-09-30T11:19:35;23.00;93.70
55004;DHT22;40900;52.710;6.438;2022-09-30T11:22:30;21.60;95.50
55004;DHT22;40900;52.710;6.438;2022-09-30T11:24:58;20.70;97.60
55004;DHT22;40900;52.710;6.438;2022-09-30T11:27:43;20.80;96.70
55004;DHT22;40900;52.710;6.438;2022-09-30T11:35:58;20.40;96.40
55004;DHT22;40900;52.710;6.438;2022-09-30T11:41:30;19.80;97.70
55004;DHT22;40900;52.710;6.438;2022-09-30T11:46:58;19.80;97.30
55004;DHT22;40900;52.710;6.438;2022-09-30T11:58:33;19.20;98.90
55004;DHT22;40900;52.710;6.438;2022-09-30T12:01:13;19.10;98.20
55004;DHT22;40900;52.710;6.438;2022-09-30T12:03:47;19.30;98.30
55004;DHT22;40900;52.710;6.438;2022-09-30T12:06:20;19.30;98.30
55004;DHT22;40900;52.710;6.438;2022-09-30T12:08:51;19.40;98.00
55004;DHT22;40900;52.710;6.438;2022-09-30T12:11:35;19.30;98.40
55004;DHT22;40900;52.710;6.438;2022-09-30T12:14:21;19.40;98.00
55004;DHT22;40900;52.710;6.438;2022-09-30T12:16:47;18.90;98.50
55004;DHT22;40900;52.710;6.438;2022-09-30T12:19:24;19.00;99.30
55004;DHT22;40900;52.710;6.438;2022-09-30T12:25:27;19.40;98.90
55004;DHT22;40900;52.710;6.438;2022-09-30T12:30:23;19.60;98.50
55004;DHT22;40900;52.710;6.438;2022-09-30T12:43:30;19.10;99.00
55004;DHT22;40900;52.710;6.438;2022-09-30T12:48:56;19.10;98.20
55004;DHT22;40900;52.710;6.438;2022-09-30T12:51:33;19.10;97.90
55004;DHT22;40900;52.710;6.438;2022-09-30T12:54:30;19.10;98.70
55004;DHT22;40900;52.710;6.438;2022-09-30T12:57:00;19.30;98.40
55004;DHT22;40900;52.710;6.438;2022-09-30T12:59:47;19.40;98.40
55004;DHT22;40900;52.710;6.438;2022-09-30T13:23:45;19.00;97.90
55004;DHT22;40900;52.710;6.438;2022-09-30T13:28:53;18.30;98.10
55004;DHT22;40900;52.710;6.438;2022-09-30T13:31:21;18.20;98.30
55004;DHT22;40900;52.710;6.438;2022-09-30T13:39:30;18.50;97.80
55004;DHT22;40900;52.710;6.438;2022-09-30T13:42:20;18.40;97.70
55004;DHT22;40900;52.710;6.438;2022-09-30T13:47:48;18.10;98.20
55004;DHT22;40900;52.710;6.438;2022-09-30T13:50:29;18.20;98.50
55004;DHT22;40900;52.710;6.438;2022-09-30T13:52:59;18.10;98.20
55004;DHT22;40900;52.710;6.438;2022-09-30T13:55:41;18.20;98.20
55004;DHT22;40900;52.710;6.438;2022-09-30T13:58:34;18.20;98.50
55004;DHT22;40900;52.710;6.438;2022-09-30T14:10:16;18.10;98.60
55004;DHT22;40900;52.710;6.438;2022-09-30T14:12:51;17.90;98.50
55004;DHT22;40900;52.710;6.438;2022-09-30T14:23:56;17.70;98.90
55004;DHT22;40900;52.710;6.438;2022-09-30T14:29:28;17.60;99.20
55004;DHT22;40900;52.710;6.438;2022-09-30T14:31:58;17.70;99.60
55004;DHT22;40900;52.710;6.438;2022-09-30T14:34:24;17.60;99.40
55004;DHT22;40900;52.710;6.438;2022-09-30T14:36:52;17.70;99.60
55004;DHT22;40900;52.710;6.438;2022-09-30T14:39:26;17.80;99.90
55004;DHT22;40900;52.710;6.438;2022-09-30T14:41:58;17.80;99.80
55004;DHT22;40900;52.710;6.438;2022-09-30T14:44:29;17.80;99.50
55004;DHT22;40900;52.710;6.438;2022-09-30T14:46:58;17.60;99.60
55004;DHT22;40900;52.710;6.438;2022-09-30T14:49:29;17.70;99.60
55004;DHT22;40900;52.710;6.438;2022-09-30T14:51:59;17.60;99.50
55004;DHT22;40900;52.710;6.438;2022-09-30T14:54:28;17.60;99.60
55004;DHT22;40900;52.710;6.438;2022-09-30T14:56:56;17.50;99.70
55004;DHT22;40900;52.710;6.438;2022-09-30T14:59:25;17.50;99.80
55004;DHT22;40900;52.710;6.438;2022-09-30T15:02:01;17.50;99.70
55004;DHT22;40900;52.710;6.438;2022-09-30T15:04:37;17.50;99.90
55004;DHT22;40900;52.710;6.438;2022-09-30T15:07:04;17.60;99.90
55004;DHT22;40900;52.710;6.438;2022-09-30T15:09:38;17.60;99.90
55004;DHT22;40900;52.710;6.438;2022-09-30T15:12:15;17.60;99.90
55004;DHT22;40900;52.710;6.438;2022-09-30T15:19:45;17.30;99.90
55004;DHT22;40900;52.710;6.438;2022-09-30T15:22:12;17.20;99.90
55004;DHT22;40900;52.710;6.438;2022-09-30T15:24:39;17.20;99.90
55004;DHT22;40900;52.710;6.438;2022-09-30T15:27:14;17.10;99.90
55004;DHT22;40900;52.710;6.438;2022-09-30T15:30:03;17.00;99.90
55004;DHT22;40900;52.710;6.438;2022-09-30T15:32:46;17.00;99.90
55004;DHT22;40900;52.710;6.438;2022-09-30T15:35:18;16.90;99.90
55004;DHT22;40900;52.710;6.438;2022-09-30T15:37:46;16.80;99.90
55004;DHT22;40900;52.710;6.438;2022-09-30T15:40:14;16.70;99.90
55004;DHT22;40900;52.710;6.438;2022-09-30T15:43:02;16.70;99.90
55004;DHT22;40900;52.710;6.438;2022-09-30T15:45:32;16.70;99.90
55004;DHT22;40900;52.710;6.438;2022-09-30T15:48:01;16.60;99.90
55004;DHT22;40900;52.710;6.438;2022-09-30T15:50:46;16.60;99.90
55004;DHT22;40900;52.710;6.438;2022-09-30T15:55:44;16.50;99.90
55004;DHT22;40900;52.710;6.438;2022-09-30T15:58:29;16.50;99.90
55004;DHT22;40900;52.710;6.438;2022-09-30T16:01:19;16.60;99.90
55004;DHT22;40900;52.710;6.438;2022-09-30T16:03:58;16.60;99.90
55004;DHT22;40900;52.710;6.438;2022-09-30T16:09:05;16.70;99.90
55004;DHT22;40900;52.710;6.438;2022-09-30T16:11:42;16.70;99.90
55004;DHT22;40900;52.710;6.438;2022-09-30T16:14:19;16.70;99.90
55004;DHT22;40900;52.710;6.438;2022-09-30T16:16:52;16.60;99.90
55004;DHT22;40900;52.710;6.438;2022-09-30T16:19:18;16.50;99.90
55004;DHT22;40900;52.710;6.438;2022-09-30T16:21:48;16.50;99.90
55004;DHT22;40900;52.710;6.438;2022-09-30T16:26:46;16.40;99.90
55004;DHT22;40900;52.710;6.438;2022-09-30T16:29:12;16.40;99.90
55004;DHT22;40900;52.710;6.438;2022-09-30T16:31:38;16.30;99.90
55004;DHT22;40900;52.710;6.438;2022-09-30T16:34:03;16.30;99.90
55004;DHT22;40900;52.710;6.438;2022-09-30T16:36:31;16.20;99.90
55004;DHT22;40900;52.710;6.438;2022-09-30T16:38:56;16.30;99.90
55004;DHT22;40900;52.710;6.438;2022-09-30T16:41:24;16.30;99.90
55004;DHT22;40900;52.710;6.438;2022-09-30T16:43:50;16.20;99.90
55004;DHT22;40900;52.710;6.438;2022-09-30T16:46:15;16.20;99.90
55004;DHT22;40900;52.710;6.438;2022-09-30T16:48:41;16.20;99.90
55004;DHT22;40900;52.710;6.438;2022-09-30T16:51:15;16.10;99.90
55004;DHT22;40900;52.710;6.438;2022-09-30T16:53:41;16.00;99.90
55004;DHT22;40900;52.710;6.438;2022-09-30T16:56:19;16.00;99.90
55004;DHT22;40900;52.710;6.438;2022-09-30T16:58:46;16.00;99.90
55004;DHT22;40900;52.710;6.438;2022-09-30T17:01:19;15.90;99.90
55004;DHT22;40900;52.710;6.438;2022-09-30T17:03:46;15.80;99.90
55004;DHT22;40900;52.710;6.438;2022-09-30T17:06:13;15.80;99.90
55004;DHT22;40900;52.710;6.438;2022-09-30T17:08:39;15.80;99.90
55004;DHT22;40900;52.710;6.438;2022-09-30T17:11:05;15.70;99.90
55004;DHT22;40900;52.710;6.438;2022-09-30T17:13:31;15.60;99.90
55004;DHT22;40900;52.710;6.438;2022-09-30T17:15:57;15.60;99.90
55004;DHT22;40900;52.710;6.438;2022-09-30T17:18:23;15.60;99.90
55004;DHT22;40900;52.710;6.438;2022-09-30T17:20:49;15.50;99.90
55004;DHT22;40900;52.710;6.438;2022-09-30T17:23:17;15.40;99.90
55004;DHT22;40900;52.710;6.438;2022-09-30T17:25:44;15.40;99.90
55004;DHT22;40900;52.710;6.438;2022-09-30T17:28:10;15.30;99.90
55004;DHT22;40900;52.710;6.438;2022-09-30T17:30:37;15.30;99.90
55004;DHT22;40900;52.710;6.438;2022-09-30T17:33:04;15.20;99.90
55004;DHT22;40900;52.710;6.438;2022-09-30T17:35:30;15.20;99.90
55004;DHT22;40900;52.710;6.438;2022-09-30T17:37:56;15.20;99.90
55004;DHT22;40900;52.710;6.438;2022-09-30T17:40:21;15.20;99.90
55004;DHT22;40900;52.710;6.438;2022-09-30T17:43:07;15.20;99.90
55004;DHT22;40900;52.710;6.438;2022-09-30T17:45:33;15.10;99.90
55004;DHT22;40900;52.710;6.438;2022-09-30T17:47:59;15.10;99.90
55004;DHT22;40900;52.710;6.438;2022-09-30T17:50:25;15.00;99.90
55004;DHT22;40900;52.710;6.438;2022-09-30T17:52:52;15.00;99.90
55004;DHT22;40900;52.710;6.438;2022-09-30T17:55:18;14.90;99.90
55004;DHT22;40900;52.710;6.438;2022-09-30T17:57:44;14.90;99.90
55004;DHT22;40900;52.710;6.438;2022-09-30T18:00:10;14.80;99.90
55004;DHT22;40900;52.710;6.438;2022-09-30T18:02:37;14.80;99.90
55004;DHT22;40900;52.710;6.438;2022-09-30T18:05:06;14.70;99.90
55004;DHT22;40900;52.710;6.438;2022-09-30T18:07:32;14.60;99.90
55004;DHT22;40900;52.710;6.438;2022-09-30T18:09:58;14.60;99.90
55004;DHT22;40900;52.710;6.438;2022-09-30T18:12:23;14.60;99.90
55004;DHT22;40900;52.710;6.438;2022-09-30T18:14:49;14.50;99.90
55004;DHT22;40900;52.710;6.438;2022-09-30T18:17:15;14.50;99.90
55004;DHT22;40900;52.710;6.438;2022-09-30T18:19:40;14.50;99.90
55004;DHT22;40900;52.710;6.438;2022-09-30T18:22:06;14.50;99.90
55004;DHT22;40900;52.710;6.438;2022-09-30T18:24:32;14.50;99.90
55004;DHT22;40900;52.710;6.438;2022-09-30T18:27:16;14.40;99.90
55004;DHT22;40900;52.710;6.438;2022-09-30T18:29:42;14.40;99.90
55004;DHT22;40900;52.710;6.438;2022-09-30T18:32:07;14.40;99.90
55004;DHT22;40900;52.710;6.438;2022-09-30T18:34:33;14.30;99.90
55004;DHT22;40900;52.710;6.438;2022-09-30T18:36:59;14.20;99.90
55004;DHT22;40900;52.710;6.438;2022-09-30T18:39:29;14.20;99.90
55004;DHT22;40900;52.710;6.438;2022-09-30T18:41:56;14.10;99.90
55004;DHT22;40900;52.710;6.438;2022-09-30T18:44:21;14.10;99.90
55004;DHT22;40900;52.710;6.438;2022-09-30T18:46:47;14.10;99.90
55004;DHT22;40900;52.710;6.438;2022-09-30T18:49:13;14.10;99.90
55004;DHT22;40900;52.710;6.438;2022-09-30T18:51:39;14.10;99.90
55004;DHT22;40900;52.710;6.438;2022-09-30T18:54:05;14.00;99.90
55004;DHT22;40900;52.710;6.438;2022-09-30T18:56:32;13.90;99.90
55004;DHT22;40900;52.710;6.438;2022-09-30T18:59:02;13.90;99.90
55004;DHT22;40900;52.710;6.438;2022-09-30T19:01:29;13.80;99.90
55004;DHT22;40900;52.710;6.438;2022-09-30T19:03:55;13.80;99.90
55004;DHT22;40900;52.710;6.438;2022-09-30T19:06:21;13.70;99.90
55004;DHT22;40900;52.710;6.438;2022-09-30T19:08:47;13.70;99.90
55004;DHT22;40900;52.710;6.438;2022-09-30T19:11:13;13.70;99.90
55004;DHT22;40900;52.710;6.438;2022-09-30T19:13:41;13.70;99.90
55004;DHT22;40900;52.710;6.438;2022-09-30T19:16:08;13.70;99.90
55004;DHT22;40900;52.710;6.438;2022-09-30T19:18:39;13.60;99.90
55004;DHT22;40900;52.710;6.438;2022-09-30T19:21:10;13.60;99.90
55004;DHT22;40900;52.710;6.438;2022-09-30T19:23:39;13.60;99.90
55004;DHT22;40900;52.710;6.438;2022-09-30T19:26:07;13.60;99.90
55004;DHT22;40900;52.710;6.438;2022-09-30T19:28:34;13.60;99.90
55004;DHT22;40900;52.710;6.438;2022-09-30T19:31:11;13.50;99.90